sensor_id;sensor_type;location;lat;lon;timestamp;temperature;humidity
29777;DHT22;16677;52.224;7.484;2023-05-06T00:00:05;10.30;99.90
29777;DHT22;16677;52.224;7.484;2023-05-06T00:02:32;10.40;99.90
29777;DHT22;16677;52.224;7.484;2023-05-06T00:04:59;10.40;99.90
29777;DHT22;16677;52.224;7.484;2023-05-06T00:07:27;10.10;99.90
29777;DHT22;16677;52.224;7.484;2023-05-06T00:09:54;10.00;99.90
29777;DHT22;16677;52.224;7.484;2023-05-06T00:12:21;9.90;99.90
29777;DHT22;16677;52.224;7.484;2023-05-06T00:14:48;9.90;99.90
29777;DHT22;16677;52.224;7.484;2023-05-06T00:17:16;9.90;99.90
29777;DHT22;16677;52.224;7.484;2023-05-06T00:19:43;10.00;99.90
29777;DHT22;16677;52.224;7.484;2023-05-06T00:22:11;9.90;99.90
29777;DHT22;16677;52.224;7.484;2023-05-06T00:24:38;10.00;99.90
29777;DHT22;16677;52.224;7.484;2023-05-06T00:27:05;10.00;99.90
29777;DHT22;16677;52.224;7.484;2023-05-06T00:29:32;10.00;99.90
29777;DHT22;16677;52.224;7.484;2023-05-06T00:31:59;10.00;99.90
29777;DHT22;16677;52.224;7.484;2023-05-06T00:34:26;9.90;99.90
29777;DHT22;16677;52.224;7.484;2023-05-06T00:36:53;9.80;99.90
29777;DHT22;16677;52.224;7.484;2023-05-06T00:39:20;9.70;99.90
29777;DHT22;16677;52.224;7.484;2023-05-06T00:41:47;9.80;99.90
29777;DHT22;16677;52.224;7.484;2023-05-06T00:44:14;9.90;99.90
29777;DHT22;16677;52.224;7.484;2023-05-06T00:46:41;9.90;99.90
29777;DHT22;16677;52.224;7.484;2023-05-06T00:49:09;10.00;99.90
29777;DHT22;16677;52.224;7.484;2023-05-06T00:51:37;10.00;99.90
29777;DHT22;16677;52.224;7.484;2023-05-06T00:54:04;10.00;99.90
29777;DHT22;16677;52.224;7.484;2023-05-06T00:56:31;10.10;99.90
29777;DHT22;16677;52.224;7.484;2023-05-06T00:58:58;10.00;99.90
29777;DHT22;16677;52.224;7.484;2023-05-06T01:01:25;10.10;99.90
29777;DHT22;16677;52.224;7.484;2023-05-06T01:03:52;10.10;99.90
29777;DHT22;16677;52.224;7.484;2023-05-06T01:06:25;10.00;99.90
29777;DHT22;16677;52.224;7.484;2023-05-06T01:09:21;9.90;99.90
29777;DHT22;16677;52.224;7.484;2023-05-06T01:17:20;9.90;99.90
29777;DHT22;16677;52.224;7.484;2023-05-06T01:19:55;9.70;99.90
29777;DHT22;16677;52.224;7.484;2023-05-06T01:22:23;9.50;99.90
29777;DHT22;16677;52.224;7.484;2023-05-06T01:24:52;9.40;99.90
29777;DHT22;16677;52.224;7.484;2023-05-06T01:27:20;9.40;99.90
29777;DHT22;16677;52.224;7.484;2023-05-06T01:29:47;9.40;99.90
29777;DHT22;16677;52.224;7.484;2023-05-06T01:34:48;9.50;99.90
29777;DHT22;16677;52.224;7.484;2023-05-06T01:39:47;9.50;99.90
29777;DHT22;16677;52.224;7.484;2023-05-06T01:42:14;9.50;99.90
29777;DHT22;16677;52.224;7.484;2023-05-06T01:44:42;9.50;99.90
29777;DHT22;16677;52.224;7.484;2023-05-06T01:47:09;9.40;99.90
29777;DHT22;16677;52.224;7.484;2023-05-06T01:49:37;9.50;99.90
29777;DHT22;16677;52.224;7.484;2023-05-06T01:52:04;9.50;99.90
29777;DHT22;16677;52.224;7.484;2023-05-06T01:54:31;9.60;99.90
29777;DHT22;16677;52.224;7.484;2023-05-06T01:56:58;9.60;99.90
29777;DHT22;16677;52.224;7.484;2023-05-06T01:59:25;9.40;99.90
29777;DHT22;16677;52.224;7.484;2023-05-06T02:01:53;9.20;99.90
29777;DHT22;16677;52.224;7.484;2023-05-06T02:04:20;9.10;99.90
29777;DHT22;16677;52.224;7.484;2023-05-06T02:06:47;8.90;99.90
29777;DHT22;16677;52.224;7.484;2023-05-06T02:09:14;8.80;99.90
29777;DHT22;16677;52.224;7.484;2023-05-06T02:11:41;8.80;99.90
29777;DHT22;16677;52.224;7.484;2023-05-06T02:14:08;8.90;99.90
29777;DHT22;16677;52.224;7.484;2023-05-06T02:16:35;9.00;99.90
29777;DHT22;16677;52.224;7.484;2023-05-06T02:19:02;9.00;99.90
29777;DHT22;16677;52.224;7.484;2023-05-06T02:21:29;9.00;99.90
29777;DHT22;16677;52.224;7.484;2023-05-06T02:23:56;9.00;99.90
29777;DHT22;16677;52.224;7.484;2023-05-06T02:26:23;9.10;99.90
29777;DHT22;16677;52.224;7.484;2023-05-06T02:28:50;9.10;99.90
29777;DHT22;16677;52.224;7.484;2023-05-06T02:31:17;9.20;99.90
29777;DHT22;16677;52.224;7.484;2023-05-06T02:33:44;9.20;99.90
29777;DHT22;16677;52.224;7.484;2023-05-06T02:36:14;9.10;99.90
29777;DHT22;16677;52.224;7.484;2023-05-06T02:38:50;9.00;99.90
29777;DHT22;16677;52.224;7.484;2023-05-06T02:41:17;9.10;99.90
29777;DHT22;16677;52.224;7.484;2023-05-06T02:43:47;9.20;99.90
29777;DHT22;16677;52.224;7.484;2023-05-06T02:46:25;9.20;99.90
29777;DHT22;16677;52.224;7.484;2023-05-06T02:48:52;9.30;99.90
29777;DHT22;16677;52.224;7.484;2023-05-06T02:51:19;9.50;99.90
29777;DHT22;16677;52.224;7.484;2023-05-06T02:53:51;9.50;99.90
29777;DHT22;16677;52.224;7.484;2023-05-06T02:56:18;9.50;99.90
29777;DHT22;16677;52.224;7.484;2023-05-06T02:58:45;9.50;99.90
29777;DHT22;16677;52.224;7.484;2023-05-06T03:01:12;9.60;99.90
29777;DHT22;16677;52.224;7.484;2023-05-06T03:03:39;9.50;99.90
29777;DHT22;16677;52.224;7.484;2023-05-06T03:06:07;9.40;99.90
29777;DHT22;16677;52.224;7.484;2023-05-06T03:08:34;9.30;99.90
29777;DHT22;16677;52.224;7.484;2023-05-06T03:11:01;9.10;99.90
29777;DHT22;16677;52.224;7.484;2023-05-06T03:13:28;9.10;99.90
29777;DHT22;16677;52.224;7.484;2023-05-06T03:15:55;9.10;99.90
29777;DHT22;16677;52.224;7.484;2023-05-06T03:18:21;9.10;99.90
29777;DHT22;16677;52.224;7.484;2023-05-06T03:20:48;9.20;99.90
29777;DHT22;16677;52.224;7.484;2023-05-06T03:23:15;9.20;99.90
29777;DHT22;16677;52.224;7.484;2023-05-06T03:25:42;9.10;99.90
29777;DHT22;16677;52.224;7.484;2023-05-06T03:28:10;9.10;99.90
29777;DHT22;16677;52.224;7.484;2023-05-06T03:30:37;9.20;99.90
29777;DHT22;16677;52.224;7.484;2023-05-06T03:33:04;9.20;99.90
29777;DHT22;16677;52.224;7.484;2023-05-06T03:35:31;9.20;99.90
29777;DHT22;16677;52.224;7.484;2023-05-06T03:40:32;9.20;99.90
29777;DHT22;16677;52.224;7.484;2023-05-06T03:42:59;9.20;99.90
29777;DHT22;16677;52.224;7.484;2023-05-06T03:45:26;9.30;99.90
29777;DHT22;16677;52.224;7.484;2023-05-06T03:47:53;9.30;99.90
29777;DHT22;16677;52.224;7.484;2023-05-06T03:50:20;9.30;99.90
29777;DHT22;16677;52.224;7.484;2023-05-06T03:52:47;9.20;99.90
29777;DHT22;16677;52.224;7.484;2023-05-06T03:55:14;9.20;99.90
29777;DHT22;16677;52.224;7.484;2023-05-06T03:57:41;9.20;99.90
29777;DHT22;16677;52.224;7.484;2023-05-06T04:00:08;9.20;99.90
29777;DHT22;16677;52.224;7.484;2023-05-06T04:02:36;9.30;99.90
29777;DHT22;16677;52.224;7.484;2023-05-06T04:05:03;9.20;99.90
29777;DHT22;16677;52.224;7.484;2023-05-06T04:07:30;9.30;99.90
29777;DHT22;16677;52.224;7.484;2023-05-06T04:09:57;9.30;99.90
29777;DHT22;16677;52.224;7.484;2023-05-06T04:12:24;9.30;99.90
29777;DHT22;16677;52.224;7.484;2023-05-06T04:14:51;9.40;99.90
29777;DHT22;16677;52.224;7.484;2023-05-06T04:17:18;9.40;99.90
29777;DHT22;16677;52.224;7.484;2023-05-06T04:19:45;9.40;99.90
29777;DHT22;16677;52.224;7.484;2023-05-06T04:22:12;9.50;99.90
29777;DHT22;16677;52.224;7.484;2023-05-06T04:24:39;9.50;99.90
29777;DHT22;16677;52.224;7.484;2023-05-06T04:27:07;9.60;99.90
29777;DHT22;16677;52.224;7.484;2023-05-06T04:29:34;9.50;99.90
29777;DHT22;16677;52.224;7.484;2023-05-06T04:32:01;9.50;99.90
29777;DHT22;16677;52.224;7.484;2023-05-06T04:34:29;9.50;99.90
29777;DHT22;16677;52.224;7.484;2023-05-06T04:36:56;9.50;99.90
29777;DHT22;16677;52.224;7.484;2023-05-06T04:39:23;9.50;99.90
29777;DHT22;16677;52.224;7.484;2023-05-06T04:41:51;9.60;99.90
29777;DHT22;16677;52.224;7.484;2023-05-06T04:44:18;9.70;99.90
29777;DHT22;16677;52.224;7.484;2023-05-06T04:46:45;9.70;99.90
29777;DHT22;16677;52.224;7.484;2023-05-06T04:49:13;9.80;99.90
29777;DHT22;16677;52.224;7.484;2023-05-06T04:51:39;9.90;99.90
29777;DHT22;16677;52.224;7.484;2023-05-06T04:54:07;9.90;94.40
29777;DHT22;16677;52.224;7.484;2023-05-06T04:56:34;9.90;27.80
29777;DHT22;16677;52.224;7.484;2023-05-06T04:59:01;10.00;36.20
29777;DHT22;16677;52.224;7.484;2023-05-06T05:01:28;10.00;4.40
29777;DHT22;16677;52.224;7.484;2023-05-06T05:03:55;10.00;1.00
29777;DHT22;16677;52.224;7.484;2023-05-06T05:06:22;10.10;1.00
29777;DHT22;16677;52.224;7.484;2023-05-06T05:08:49;10.20;1.00
29777;DHT22;16677;52.224;7.484;2023-05-06T05:11:16;10.20;1.00
29777;DHT22;16677;52.224;7.484;2023-05-06T05:13:43;10.30;1.00
29777;DHT22;16677;52.224;7.484;2023-05-06T05:16:10;10.40;1.00
29777;DHT22;16677;52.224;7.484;2023-05-06T05:18:37;10.50;1.00
29777;DHT22;16677;52.224;7.484;2023-05-06T05:21:04;10.70;1.00
29777;DHT22;16677;52.224;7.484;2023-05-06T05:23:31;10.80;1.00
29777;DHT22;16677;52.224;7.484;2023-05-06T05:25:58;10.70;1.00
29777;DHT22;16677;52.224;7.484;2023-05-06T05:28:25;10.80;1.00
29777;DHT22;16677;52.224;7.484;2023-05-06T05:30:52;10.90;1.00
29777;DHT22;16677;52.224;7.484;2023-05-06T05:33:19;11.00;1.00
29777;DHT22;16677;52.224;7.484;2023-05-06T05:35:47;10.90;1.00
29777;DHT22;16677;52.224;7.484;2023-05-06T05:38:13;10.90;1.00
29777;DHT22;16677;52.224;7.484;2023-05-06T05:40:41;10.90;1.00
29777;DHT22;16677;52.224;7.484;2023-05-06T05:43:07;10.90;1.00
29777;DHT22;16677;52.224;7.484;2023-05-06T05:45:34;11.10;1.00
29777;DHT22;16677;52.224;7.484;2023-05-06T05:48:01;11.00;1.00
29777;DHT22;16677;52.224;7.484;2023-05-06T05:50:29;11.20;1.00
29777;DHT22;16677;52.224;7.484;2023-05-06T05:52:56;11.30;1.00
29777;DHT22;16677;52.224;7.484;2023-05-06T05:55:23;11.30;99.90
29777;DHT22;16677;52.224;7.484;2023-05-06T05:57:50;11.40;99.90
29777;DHT22;16677;52.224;7.484;2023-05-06T06:00:18;11.50;99.90
29777;DHT22;16677;52.224;7.484;2023-05-06T06:02:45;11.60;99.90
29777;DHT22;16677;52.224;7.484;2023-05-06T06:05:12;11.80;99.90
29777;DHT22;16677;52.224;7.484;2023-05-06T06:07:40;12.10;99.90
29777;DHT22;16677;52.224;7.484;2023-05-06T06:10:07;11.90;22.60
29777;DHT22;16677;52.224;7.484;2023-05-06T06:12:35;11.90;1.00
29777;DHT22;16677;52.224;7.484;2023-05-06T06:15:02;12.10;1.00
29777;DHT22;16677;52.224;7.484;2023-05-06T06:17:33;12.10;99.90
29777;DHT22;16677;52.224;7.484;2023-05-06T06:20:00;12.10;1.00
29777;DHT22;16677;52.224;7.484;2023-05-06T06:22:28;12.60;99.90
29777;DHT22;16677;52.224;7.484;2023-05-06T06:24:55;12.70;99.90
29777;DHT22;16677;52.224;7.484;2023-05-06T06:27:22;12.30;99.90
29777;DHT22;16677;52.224;7.484;2023-05-06T06:29:49;12.70;99.90
29777;DHT22;16677;52.224;7.484;2023-05-06T06:32:16;12.90;99.90
29777;DHT22;16677;52.224;7.484;2023-05-06T06:34:44;13.00;99.90
29777;DHT22;16677;52.224;7.484;2023-05-06T06:37:11;12.70;99.90
29777;DHT22;16677;52.224;7.484;2023-05-06T06:39:38;12.80;1.00
29777;DHT22;16677;52.224;7.484;2023-05-06T06:42:05;12.80;1.00
29777;DHT22;16677;52.224;7.484;2023-05-06T06:44:34;13.00;1.00
29777;DHT22;16677;52.224;7.484;2023-05-06T06:47:01;13.20;68.90
29777;DHT22;16677;52.224;7.484;2023-05-06T06:49:29;13.10;99.90
29777;DHT22;16677;52.224;7.484;2023-05-06T06:51:57;13.10;99.90
29777;DHT22;16677;52.224;7.484;2023-05-06T06:54:24;13.30;1.00
29777;DHT22;16677;52.224;7.484;2023-05-06T06:56:54;13.20;1.00
29777;DHT22;16677;52.224;7.484;2023-05-06T06:59:23;13.00;99.90
29777;DHT22;16677;52.224;7.484;2023-05-06T07:01:50;13.10;1.00
29777;DHT22;16677;52.224;7.484;2023-05-06T07:04:17;13.50;1.00
29777;DHT22;16677;52.224;7.484;2023-05-06T07:06:44;13.30;99.90
29777;DHT22;16677;52.224;7.484;2023-05-06T07:09:12;13.20;1.00
29777;DHT22;16677;52.224;7.484;2023-05-06T07:11:39;13.30;1.00
29777;DHT22;16677;52.224;7.484;2023-05-06T07:14:06;13.30;1.00
29777;DHT22;16677;52.224;7.484;2023-05-06T07:16:33;13.40;99.90
29777;DHT22;16677;52.224;7.484;2023-05-06T07:19:01;13.70;68.10
29777;DHT22;16677;52.224;7.484;2023-05-06T07:21:28;13.70;99.90
29777;DHT22;16677;52.224;7.484;2023-05-06T07:23:58;13.80;99.90
29777;DHT22;16677;52.224;7.484;2023-05-06T07:26:25;13.80;1.00
29777;DHT22;16677;52.224;7.484;2023-05-06T07:28:52;13.90;1.00
29777;DHT22;16677;52.224;7.484;2023-05-06T07:31:20;13.90;1.00
29777;DHT22;16677;52.224;7.484;2023-05-06T07:33:47;13.80;1.00
29777;DHT22;16677;52.224;7.484;2023-05-06T07:36:14;14.10;20.00
29777;DHT22;16677;52.224;7.484;2023-05-06T07:38:41;14.30;99.90
29777;DHT22;16677;52.224;7.484;2023-05-06T07:41:08;14.70;1.00
29777;DHT22;16677;52.224;7.484;2023-05-06T07:43:36;14.90;1.00
29777;DHT22;16677;52.224;7.484;2023-05-06T07:46:03;15.70;1.00
29777;DHT22;16677;52.224;7.484;2023-05-06T07:48:31;15.50;1.00
29777;DHT22;16677;52.224;7.484;2023-05-06T07:50:59;15.40;1.00
29777;DHT22;16677;52.224;7.484;2023-05-06T07:53:26;15.40;1.00
29777;DHT22;16677;52.224;7.484;2023-05-06T07:55:54;15.70;1.00
29777;DHT22;16677;52.224;7.484;2023-05-06T07:58:28;16.00;1.00
29777;DHT22;16677;52.224;7.484;2023-05-06T08:00:56;16.30;99.90
29777;DHT22;16677;52.224;7.484;2023-05-06T08:03:24;16.50;99.90
29777;DHT22;16677;52.224;7.484;2023-05-06T08:05:52;16.80;99.90
29777;DHT22;16677;52.224;7.484;2023-05-06T08:08:21;16.80;99.90
29777;DHT22;16677;52.224;7.484;2023-05-06T08:10:49;16.40;99.90
29777;DHT22;16677;52.224;7.484;2023-05-06T08:13:16;16.10;1.00
29777;DHT22;16677;52.224;7.484;2023-05-06T08:15:44;16.60;1.00
29777;DHT22;16677;52.224;7.484;2023-05-06T08:18:11;16.80;99.90
29777;DHT22;16677;52.224;7.484;2023-05-06T08:20:48;16.80;99.90
29777;DHT22;16677;52.224;7.484;2023-05-06T08:23:16;16.70;99.90
29777;DHT22;16677;52.224;7.484;2023-05-06T08:25:43;16.70;99.90
29777;DHT22;16677;52.224;7.484;2023-05-06T08:28:10;16.80;99.90
29777;DHT22;16677;52.224;7.484;2023-05-06T08:30:37;16.80;99.90
29777;DHT22;16677;52.224;7.484;2023-05-06T08:33:05;17.00;99.90
29777;DHT22;16677;52.224;7.484;2023-05-06T08:35:32;17.30;99.90
29777;DHT22;16677;52.224;7.484;2023-05-06T08:37:59;17.00;99.90
29777;DHT22;16677;52.224;7.484;2023-05-06T08:40:26;17.10;99.90
29777;DHT22;16677;52.224;7.484;2023-05-06T08:42:58;17.50;33.90
29777;DHT22;16677;52.224;7.484;2023-05-06T08:45:28;17.60;1.00
29777;DHT22;16677;52.224;7.484;2023-05-06T08:47:55;17.10;12.30
29777;DHT22;16677;52.224;7.484;2023-05-06T08:50:22;17.00;99.90
29777;DHT22;16677;52.224;7.484;2023-05-06T08:52:50;16.90;99.90
29777;DHT22;16677;52.224;7.484;2023-05-06T08:55:18;16.90;99.90
29777;DHT22;16677;52.224;7.484;2023-05-06T08:57:45;17.10;99.90
29777;DHT22;16677;52.224;7.484;2023-05-06T09:00:12;17.20;99.90
29777;DHT22;16677;52.224;7.484;2023-05-06T09:02:40;17.40;40.20
29777;DHT22;16677;52.224;7.484;2023-05-06T09:05:09;17.50;23.20
29777;DHT22;16677;52.224;7.484;2023-05-06T09:07:37;17.40;1.00
29777;DHT22;16677;52.224;7.484;2023-05-06T09:10:11;17.70;1.00
29777;DHT22;16677;52.224;7.484;2023-05-06T09:12:39;17.70;1.00
29777;DHT22;16677;52.224;7.484;2023-05-06T09:15:08;17.80;1.00
29777;DHT22;16677;52.224;7.484;2023-05-06T09:17:36;17.80;1.00
29777;DHT22;16677;52.224;7.484;2023-05-06T09:20:04;17.60;99.90
29777;DHT22;16677;52.224;7.484;2023-05-06T09:22:37;17.80;1.00
29777;DHT22;16677;52.224;7.484;2023-05-06T09:25:06;18.00;1.00
29777;DHT22;16677;52.224;7.484;2023-05-06T09:27:34;17.90;1.00
29777;DHT22;16677;52.224;7.484;2023-05-06T09:30:10;17.80;1.00
29777;DHT22;16677;52.224;7.484;2023-05-06T09:32:38;17.80;1.00
29777;DHT22;16677;52.224;7.484;2023-05-06T09:35:07;17.90;1.00
29777;DHT22;16677;52.224;7.484;2023-05-06T09:40:03;17.90;1.00
29777;DHT22;16677;52.224;7.484;2023-05-06T09:42:32;17.80;1.00
29777;DHT22;16677;52.224;7.484;2023-05-06T09:45:00;17.80;1.00
29777;DHT22;16677;52.224;7.484;2023-05-06T09:47:33;18.00;1.00
29777;DHT22;16677;52.224;7.484;2023-05-06T09:50:04;18.00;1.00
29777;DHT22;16677;52.224;7.484;2023-05-06T09:52:31;18.40;1.00
29777;DHT22;16677;52.224;7.484;2023-05-06T09:54:59;18.40;1.00
29777;DHT22;16677;52.224;7.484;2023-05-06T09:57:28;18.30;1.00
29777;DHT22;16677;52.224;7.484;2023-05-06T09:59:57;18.30;1.00
29777;DHT22;16677;52.224;7.484;2023-05-06T10:02:25;18.60;1.00
29777;DHT22;16677;52.224;7.484;2023-05-06T10:04:55;18.30;1.00
29777;DHT22;16677;52.224;7.484;2023-05-06T10:07:23;18.40;1.00
29777;DHT22;16677;52.224;7.484;2023-05-06T10:09:55;18.50;1.00
29777;DHT22;16677;52.224;7.484;2023-05-06T10:12:24;18.60;1.00
29777;DHT22;16677;52.224;7.484;2023-05-06T10:14:52;18.60;1.00
29777;DHT22;16677;52.224;7.484;2023-05-06T10:17:23;18.70;1.00
29777;DHT22;16677;52.224;7.484;2023-05-06T10:19:55;18.70;1.00
29777;DHT22;16677;52.224;7.484;2023-05-06T10:22:46;18.50;1.00
29777;DHT22;16677;52.224;7.484;2023-05-06T10:25:24;19.00;1.00
29777;DHT22;16677;52.224;7.484;2023-05-06T10:27:56;19.20;1.00
29777;DHT22;16677;52.224;7.484;2023-05-06T10:30:23;19.40;1.00
29777;DHT22;16677;52.224;7.484;2023-05-06T10:32:51;19.40;1.00
29777;DHT22;16677;52.224;7.484;2023-05-06T10:41:02;19.30;1.00
29777;DHT22;16677;52.224;7.484;2023-05-06T10:43:33;19.50;1.00
29777;DHT22;16677;52.224;7.484;2023-05-06T10:48:37;20.10;99.90
29777;DHT22;16677;52.224;7.484;2023-05-06T10:53:57;19.60;99.90
29777;DHT22;16677;52.224;7.484;2023-05-06T10:56:25;19.70;99.90
29777;DHT22;16677;52.224;7.484;2023-05-06T10:58:53;19.90;99.90
29777;DHT22;16677;52.224;7.484;2023-05-06T11:01:26;20.20;99.90
29777;DHT22;16677;52.224;7.484;2023-05-06T11:03:54;20.40;99.90
29777;DHT22;16677;52.224;7.484;2023-05-06T11:06:54;20.20;99.90
29777;DHT22;16677;52.224;7.484;2023-05-06T11:12:51;20.20;99.90
29777;DHT22;16677;52.224;7.484;2023-05-06T11:17:53;20.60;99.90
29777;DHT22;16677;52.224;7.484;2023-05-06T11:22:52;20.20;99.90
29777;DHT22;16677;52.224;7.484;2023-05-06T11:25:49;20.30;99.90
29777;DHT22;16677;52.224;7.484;2023-05-06T11:28:16;20.30;99.90
29777;DHT22;16677;52.224;7.484;2023-05-06T11:30:53;20.40;99.90
29777;DHT22;16677;52.224;7.484;2023-05-06T11:33:22;20.80;99.90
29777;DHT22;16677;52.224;7.484;2023-05-06T11:35:50;21.00;99.90
29777;DHT22;16677;52.224;7.484;2023-05-06T11:38:17;20.70;99.90
29777;DHT22;16677;52.224;7.484;2023-05-06T11:40:44;20.80;99.90
29777;DHT22;16677;52.224;7.484;2023-05-06T11:43:15;20.70;99.90
29777;DHT22;16677;52.224;7.484;2023-05-06T11:45:47;20.70;99.90
29777;DHT22;16677;52.224;7.484;2023-05-06T11:48:15;20.70;99.90
29777;DHT22;16677;52.224;7.484;2023-05-06T11:50:48;20.80;99.90
29777;DHT22;16677;52.224;7.484;2023-05-06T11:53:18;21.20;99.90
29777;DHT22;16677;52.224;7.484;2023-05-06T11:55:47;20.90;99.90
29777;DHT22;16677;52.224;7.484;2023-05-06T11:58:17;20.60;99.90
29777;DHT22;16677;52.224;7.484;2023-05-06T12:00:48;20.10;99.90
29777;DHT22;16677;52.224;7.484;2023-05-06T12:03:18;20.40;99.90
29777;DHT22;16677;52.224;7.484;2023-05-06T12:05:49;20.70;99.90
29777;DHT22;16677;52.224;7.484;2023-05-06T12:08:32;21.00;99.90
29777;DHT22;16677;52.224;7.484;2023-05-06T12:11:03;21.20;91.90
29777;DHT22;16677;52.224;7.484;2023-05-06T12:13:31;21.20;95.20
29777;DHT22;16677;52.224;7.484;2023-05-06T12:16:03;21.10;85.10
29777;DHT22;16677;52.224;7.484;2023-05-06T12:18:31;21.30;99.90
29777;DHT22;16677;52.224;7.484;2023-05-06T12:21:01;21.70;96.40
29777;DHT22;16677;52.224;7.484;2023-05-06T12:23:29;21.70;65.00
29777;DHT22;16677;52.224;7.484;2023-05-06T12:26:03;21.70;73.40
29777;DHT22;16677;52.224;7.484;2023-05-06T12:28:32;21.60;75.20
29777;DHT22;16677;52.224;7.484;2023-05-06T12:31:19;21.70;90.60
29777;DHT22;16677;52.224;7.484;2023-05-06T12:33:48;21.90;61.70
29777;DHT22;16677;52.224;7.484;2023-05-06T12:36:17;21.60;27.60
29777;DHT22;16677;52.224;7.484;2023-05-06T12:38:51;21.20;34.00
29777;DHT22;16677;52.224;7.484;2023-05-06T12:41:20;20.80;61.10
29777;DHT22;16677;52.224;7.484;2023-05-06T12:43:47;20.90;74.00
29777;DHT22;16677;52.224;7.484;2023-05-06T12:46:16;21.40;45.20
29777;DHT22;16677;52.224;7.484;2023-05-06T12:48:57;21.70;39.60
29777;DHT22;16677;52.224;7.484;2023-05-06T12:51:25;21.90;17.20
29777;DHT22;16677;52.224;7.484;2023-05-06T12:53:53;22.30;1.70
29777;DHT22;16677;52.224;7.484;2023-05-06T12:56:20;22.40;1.00
29777;DHT22;16677;52.224;7.484;2023-05-06T12:59:01;22.20;1.00
29777;DHT22;16677;52.224;7.484;2023-05-06T13:01:29;22.40;1.00
29777;DHT22;16677;52.224;7.484;2023-05-06T13:03:57;21.90;8.90
29777;DHT22;16677;52.224;7.484;2023-05-06T13:06:24;21.70;1.00
29777;DHT22;16677;52.224;7.484;2023-05-06T13:08:51;21.90;8.70
29777;DHT22;16677;52.224;7.484;2023-05-06T13:11:18;21.90;1.00
29777;DHT22;16677;52.224;7.484;2023-05-06T13:13:47;21.60;1.00
29777;DHT22;16677;52.224;7.484;2023-05-06T13:16:14;21.70;1.00
29777;DHT22;16677;52.224;7.484;2023-05-06T13:18:42;21.90;1.00
29777;DHT22;16677;52.224;7.484;2023-05-06T13:21:09;22.10;1.00
29777;DHT22;16677;52.224;7.484;2023-05-06T13:23:36;22.00;1.00
29777;DHT22;16677;52.224;7.484;2023-05-06T13:26:05;21.80;1.00
29777;DHT22;16677;52.224;7.484;2023-05-06T13:28:33;21.70;3.90
29777;DHT22;16677;52.224;7.484;2023-05-06T13:31:02;21.90;1.00
29777;DHT22;16677;52.224;7.484;2023-05-06T13:33:29;22.30;1.00
29777;DHT22;16677;52.224;7.484;2023-05-06T13:35:57;22.40;1.00
29777;DHT22;16677;52.224;7.484;2023-05-06T13:38:24;22.60;1.00
29777;DHT22;16677;52.224;7.484;2023-05-06T13:40:52;22.70;1.00
29777;DHT22;16677;52.224;7.484;2023-05-06T13:43:20;22.40;1.00
29777;DHT22;16677;52.224;7.484;2023-05-06T13:45:48;22.50;1.00
29777;DHT22;16677;52.224;7.484;2023-05-06T13:48:15;22.30;1.00
29777;DHT22;16677;52.224;7.484;2023-05-06T13:50:46;22.30;1.00
29777;DHT22;16677;52.224;7.484;2023-05-06T13:53:14;22.30;1.00
29777;DHT22;16677;52.224;7.484;2023-05-06T13:55:41;21.90;1.00
29777;DHT22;16677;52.224;7.484;2023-05-06T13:58:09;21.80;1.00
29777;DHT22;16677;52.224;7.484;2023-05-06T14:00:36;21.60;1.00
29777;DHT22;16677;52.224;7.484;2023-05-06T14:03:03;21.60;1.00
29777;DHT22;16677;52.224;7.484;2023-05-06T14:05:31;21.40;1.00
29777;DHT22;16677;52.224;7.484;2023-05-06T14:07:58;21.50;1.00
29777;DHT22;16677;52.224;7.484;2023-05-06T14:10:25;21.50;4.10
29777;DHT22;16677;52.224;7.484;2023-05-06T14:12:52;21.80;1.00
29777;DHT22;16677;52.224;7.484;2023-05-06T14:15:20;22.10;1.00
29777;DHT22;16677;52.224;7.484;2023-05-06T14:17:47;21.90;1.00
29777;DHT22;16677;52.224;7.484;2023-05-06T14:20:14;21.80;1.00
29777;DHT22;16677;52.224;7.484;2023-05-06T14:22:42;21.40;1.00
29777;DHT22;16677;52.224;7.484;2023-05-06T14:25:09;21.40;1.00
29777;DHT22;16677;52.224;7.484;2023-05-06T14:27:37;21.30;1.00
29777;DHT22;16677;52.224;7.484;2023-05-06T14:30:04;21.50;1.00
29777;DHT22;16677;52.224;7.484;2023-05-06T14:32:35;21.70;1.00
29777;DHT22;16677;52.224;7.484;2023-05-06T14:35:03;21.90;1.00
29777;DHT22;16677;52.224;7.484;2023-05-06T14:37:30;22.00;1.00
29777;DHT22;16677;52.224;7.484;2023-05-06T14:39:57;22.20;1.00
29777;DHT22;16677;52.224;7.484;2023-05-06T14:42:25;22.50;1.00
29777;DHT22;16677;52.224;7.484;2023-05-06T14:44:52;22.20;1.00
29777;DHT22;16677;52.224;7.484;2023-05-06T14:47:19;22.10;1.00
29777;DHT22;16677;52.224;7.484;2023-05-06T14:49:47;21.80;1.00
29777;DHT22;16677;52.224;7.484;2023-05-06T14:52:14;21.80;1.00
29777;DHT22;16677;52.224;7.484;2023-05-06T14:54:41;21.80;1.00
29777;DHT22;16677;52.224;7.484;2023-05-06T14:57:09;22.00;1.00
29777;DHT22;16677;52.224;7.484;2023-05-06T14:59:37;22.10;1.00
29777;DHT22;16677;52.224;7.484;2023-05-06T15:02:07;22.20;1.00
29777;DHT22;16677;52.224;7.484;2023-05-06T15:04:35;22.40;1.00
29777;DHT22;16677;52.224;7.484;2023-05-06T15:07:02;22.10;1.00
29777;DHT22;16677;52.224;7.484;2023-05-06T15:09:30;22.10;1.00
29777;DHT22;16677;52.224;7.484;2023-05-06T15:11:57;22.20;1.00
29777;DHT22;16677;52.224;7.484;2023-05-06T15:14:24;22.30;1.00
29777;DHT22;16677;52.224;7.484;2023-05-06T15:16:57;22.20;1.00
29777;DHT22;16677;52.224;7.484;2023-05-06T15:19:24;21.80;1.00
29777;DHT22;16677;52.224;7.484;2023-05-06T15:21:51;21.60;1.00
29777;DHT22;16677;52.224;7.484;2023-05-06T15:24:18;21.70;1.00
29777;DHT22;16677;52.224;7.484;2023-05-06T15:26:46;21.80;1.00
29777;DHT22;16677;52.224;7.484;2023-05-06T15:29:13;22.30;1.00
29777;DHT22;16677;52.224;7.484;2023-05-06T15:31:43;22.10;1.00
29777;DHT22;16677;52.224;7.484;2023-05-06T15:34:11;22.20;1.00
29777;DHT22;16677;52.224;7.484;2023-05-06T15:36:41;22.40;1.00
29777;DHT22;16677;52.224;7.484;2023-05-06T15:41:45;22.30;1.00
29777;DHT22;16677;52.224;7.484;2023-05-06T15:44:13;22.60;1.00
29777;DHT22;16677;52.224;7.484;2023-05-06T15:46:42;23.00;1.00
29777;DHT22;16677;52.224;7.484;2023-05-06T15:49:09;23.20;1.00
29777;DHT22;16677;52.224;7.484;2023-05-06T15:51:56;22.70;1.00
29777;DHT22;16677;52.224;7.484;2023-05-06T15:54:26;22.60;1.00
29777;DHT22;16677;52.224;7.484;2023-05-06T15:56:54;22.90;1.00
29777;DHT22;16677;52.224;7.484;2023-05-06T15:59:22;22.80;1.00
29777;DHT22;16677;52.224;7.484;2023-05-06T16:01:49;22.40;1.00
29777;DHT22;16677;52.224;7.484;2023-05-06T16:04:36;22.00;1.00
29777;DHT22;16677;52.224;7.484;2023-05-06T16:07:04;21.70;1.00
29777;DHT22;16677;52.224;7.484;2023-05-06T16:09:31;21.60;1.00
29777;DHT22;16677;52.224;7.484;2023-05-06T16:11:58;21.60;1.00
29777;DHT22;16677;52.224;7.484;2023-05-06T16:14:25;21.60;1.00
29777;DHT22;16677;52.224;7.484;2023-05-06T16:16:52;21.70;1.00
29777;DHT22;16677;52.224;7.484;2023-05-06T16:19:19;21.80;1.00
29777;DHT22;16677;52.224;7.484;2023-05-06T16:21:46;21.70;1.00
29777;DHT22;16677;52.224;7.484;2023-05-06T16:24:14;21.20;1.00
29777;DHT22;16677;52.224;7.484;2023-05-06T16:26:41;21.30;1.00